sensor_id;sensor_type;location;lat;lon;timestamp;P1;durP1;ratioP1;P2;durP2;ratioP2
68923;SDS011;55961;52.156;20.942;2023-02-04T00:01:57;12.05;;;4.95;;
68923;SDS011;55961;52.156;20.942;2023-02-04T00:04:23;12.48;;;5.32;;
68923;SDS011;55961;52.156;20.942;2023-02-04T00:06:49;12.30;;;5.30;;
68923;SDS011;55961;52.156;20.942;2023-02-04T00:09:15;12.02;;;4.13;;
68923;SDS011;55961;52.156;20.942;2023-02-04T00:11:41;10.65;;;4.50;;
68923;SDS011;55961;52.156;20.942;2023-02-04T00:14:07;13.37;;;5.47;;
68923;SDS011;55961;52.156;20.942;2023-02-04T00:16:33;12.82;;;5.15;;
68923;SDS011;55961;52.156;20.942;2023-02-04T00:21:59;11.57;;;4.60;;
68923;SDS011;55961;52.156;20.942;2023-02-04T00:24:25;12.97;;;4.27;;
68923;SDS011;55961;52.156;20.942;2023-02-04T00:26:51;9.13;;;3.45;;
68923;SDS011;55961;52.156;20.942;2023-02-04T00:29:17;9.67;;;4.60;;
68923;SDS011;55961;52.156;20.942;2023-02-04T00:31:43;12.05;;;4.38;;
68923;SDS011;55961;52.156;20.942;2023-02-04T00:34:09;10.35;;;4.78;;
68923;SDS011;55961;52.156;20.942;2023-02-04T00:36:35;12.38;;;5.05;;
68923;SDS011;55961;52.156;20.942;2023-02-04T00:39:00;9.43;;;4.23;;
68923;SDS011;55961;52.156;20.942;2023-02-04T00:41:27;12.20;;;4.97;;
68923;SDS011;55961;52.156;20.942;2023-02-04T00:43:52;12.37;;;4.63;;
68923;SDS011;55961;52.156;20.942;2023-02-04T00:46:18;9.73;;;4.28;;
68923;SDS011;55961;52.156;20.942;2023-02-04T00:48:44;12.80;;;4.30;;
68923;SDS011;55961;52.156;20.942;2023-02-04T00:51:10;13.10;;;4.90;;
68923;SDS011;55961;52.156;20.942;2023-02-04T00:53:36;11.45;;;4.80;;
68923;SDS011;55961;52.156;20.942;2023-02-04T00:56:02;11.25;;;5.00;;
68923;SDS011;55961;52.156;20.942;2023-02-04T00:58:28;11.97;;;5.53;;
68923;SDS011;55961;52.156;20.942;2023-02-04T01:00:54;8.00;;;3.67;;
68923;SDS011;55961;52.156;20.942;2023-02-04T01:03:19;14.63;;;4.93;;
68923;SDS011;55961;52.156;20.942;2023-02-04T01:05:45;11.63;;;5.18;;
68923;SDS011;55961;52.156;20.942;2023-02-04T01:08:11;12.70;;;5.43;;
68923;SDS011;55961;52.156;20.942;2023-02-04T01:10:37;14.98;;;5.85;;
68923;SDS011;55961;52.156;20.942;2023-02-04T01:13:03;10.23;;;4.20;;
68923;SDS011;55961;52.156;20.942;2023-02-04T01:15:29;11.93;;;5.27;;
68923;SDS011;55961;52.156;20.942;2023-02-04T01:17:55;13.52;;;5.63;;
68923;SDS011;55961;52.156;20.942;2023-02-04T01:20:21;12.38;;;5.40;;
68923;SDS011;55961;52.156;20.942;2023-02-04T01:22:47;11.10;;;4.43;;
68923;SDS011;55961;52.156;20.942;2023-02-04T01:25:13;11.57;;;5.50;;
68923;SDS011;55961;52.156;20.942;2023-02-04T01:27:39;11.27;;;4.72;;
68923;SDS011;55961;52.156;20.942;2023-02-04T01:30:05;12.20;;;4.90;;
68923;SDS011;55961;52.156;20.942;2023-02-04T01:32:32;11.77;;;5.63;;
68923;SDS011;55961;52.156;20.942;2023-02-04T01:34:58;12.10;;;4.70;;
68923;SDS011;55961;52.156;20.942;2023-02-04T01:37:24;12.90;;;4.00;;
68923;SDS011;55961;52.156;20.942;2023-02-04T01:39:50;10.20;;;3.47;;
68923;SDS011;55961;52.156;20.942;2023-02-04T01:42:15;11.15;;;4.57;;
68923;SDS011;55961;52.156;20.942;2023-02-04T01:44:42;11.30;;;4.40;;
68923;SDS011;55961;52.156;20.942;2023-02-04T01:47:08;11.00;;;4.97;;
68923;SDS011;55961;52.156;20.942;2023-02-04T01:49:34;11.87;;;5.60;;
68923;SDS011;55961;52.156;20.942;2023-02-04T01:52:01;11.40;;;5.38;;
68923;SDS011;55961;52.156;20.942;2023-02-04T01:54:28;10.32;;;4.95;;
68923;SDS011;55961;52.156;20.942;2023-02-04T01:56:54;14.43;;;5.95;;
68923;SDS011;55961;52.156;20.942;2023-02-04T01:59:20;11.77;;;4.80;;
68923;SDS011;55961;52.156;20.942;2023-02-04T02:01:48;12.00;;;5.15;;
68923;SDS011;55961;52.156;20.942;2023-02-04T02:04:37;10.10;;;4.43;;
68923;SDS011;55961;52.156;20.942;2023-02-04T02:07:02;12.70;;;5.35;;
68923;SDS011;55961;52.156;20.942;2023-02-04T02:09:30;13.95;;;5.32;;
68923;SDS011;55961;52.156;20.942;2023-02-04T02:11:57;15.67;;;5.13;;
68923;SDS011;55961;52.156;20.942;2023-02-04T02:14:25;11.70;;;5.10;;
68923;SDS011;55961;52.156;20.942;2023-02-04T02:16:52;9.55;;;4.40;;
68923;SDS011;55961;52.156;20.942;2023-02-04T02:19:25;12.63;;;5.40;;
68923;SDS011;55961;52.156;20.942;2023-02-04T02:22:08;12.20;;;5.53;;
68923;SDS011;55961;52.156;20.942;2023-02-04T02:24:45;10.87;;;4.30;;
68923;SDS011;55961;52.156;20.942;2023-02-04T02:27:10;10.75;;;4.15;;
68923;SDS011;55961;52.156;20.942;2023-02-04T02:29:38;9.43;;;4.03;;
68923;SDS011;55961;52.156;20.942;2023-02-04T02:32:06;13.27;;;4.43;;
68923;SDS011;55961;52.156;20.942;2023-02-04T02:34:34;13.90;;;4.55;;
68923;SDS011;55961;52.156;20.942;2023-02-04T02:37:01;11.55;;;4.70;;
68923;SDS011;55961;52.156;20.942;2023-02-04T02:39:29;12.98;;;4.22;;
68923;SDS011;55961;52.156;20.942;2023-02-04T02:41:55;10.52;;;4.18;;
68923;SDS011;55961;52.156;20.942;2023-02-04T02:44:23;8.20;;;3.03;;
68923;SDS011;55961;52.156;20.942;2023-02-04T02:46:50;11.43;;;4.05;;
68923;SDS011;55961;52.156;20.942;2023-02-04T02:49:18;9.98;;;3.83;;
68923;SDS011;55961;52.156;20.942;2023-02-04T02:51:45;9.70;;;3.05;;
68923;SDS011;55961;52.156;20.942;2023-02-04T02:54:22;9.27;;;3.53;;
68923;SDS011;55961;52.156;20.942;2023-02-04T02:56:50;9.87;;;3.83;;
68923;SDS011;55961;52.156;20.942;2023-02-04T02:59:16;9.48;;;3.50;;
68923;SDS011;55961;52.156;20.942;2023-02-04T03:01:44;8.90;;;4.40;;
68923;SDS011;55961;52.156;20.942;2023-02-04T03:04:12;8.93;;;3.20;;
68923;SDS011;55961;52.156;20.942;2023-02-04T03:06:39;8.63;;;3.30;;
68923;SDS011;55961;52.156;20.942;2023-02-04T03:09:06;7.07;;;2.77;;
68923;SDS011;55961;52.156;20.942;2023-02-04T03:11:32;11.02;;;3.67;;
68923;SDS011;55961;52.156;20.942;2023-02-04T03:13:58;8.35;;;2.90;;
68923;SDS011;55961;52.156;20.942;2023-02-04T03:16:28;8.68;;;3.40;;
68923;SDS011;55961;52.156;20.942;2023-02-04T03:18:58;8.32;;;3.35;;
68923;SDS011;55961;52.156;20.942;2023-02-04T03:21:25;7.23;;;2.50;;
68923;SDS011;55961;52.156;20.942;2023-02-04T03:23:51;8.52;;;3.40;;
68923;SDS011;55961;52.156;20.942;2023-02-04T03:26:24;10.02;;;3.28;;
68923;SDS011;55961;52.156;20.942;2023-02-04T03:28:52;11.05;;;3.95;;
68923;SDS011;55961;52.156;20.942;2023-02-04T03:31:19;11.18;;;3.30;;
68923;SDS011;55961;52.156;20.942;2023-02-04T03:33:45;11.17;;;3.10;;
68923;SDS011;55961;52.156;20.942;2023-02-04T03:36:11;11.07;;;3.45;;
68923;SDS011;55961;52.156;20.942;2023-02-04T03:38:37;10.48;;;4.50;;
68923;SDS011;55961;52.156;20.942;2023-02-04T03:41:03;12.20;;;3.42;;
68923;SDS011;55961;52.156;20.942;2023-02-04T03:43:29;8.38;;;3.35;;
68923;SDS011;55961;52.156;20.942;2023-02-04T03:45:55;7.67;;;2.87;;
68923;SDS011;55961;52.156;20.942;2023-02-04T03:48:21;8.55;;;2.90;;
68923;SDS011;55961;52.156;20.942;2023-02-04T03:50:47;10.07;;;2.90;;
68923;SDS011;55961;52.156;20.942;2023-02-04T03:53:13;9.52;;;3.67;;
68923;SDS011;55961;52.156;20.942;2023-02-04T03:55:39;11.45;;;3.40;;
68923;SDS011;55961;52.156;20.942;2023-02-04T03:58:05;7.32;;;3.05;;
68923;SDS011;55961;52.156;20.942;2023-02-04T04:00:31;7.50;;;2.13;;
68923;SDS011;55961;52.156;20.942;2023-02-04T04:02:57;9.53;;;2.87;;
68923;SDS011;55961;52.156;20.942;2023-02-04T04:05:24;9.55;;;2.78;;
68923;SDS011;55961;52.156;20.942;2023-02-04T04:07:51;6.18;;;2.60;;
68923;SDS011;55961;52.156;20.942;2023-02-04T04:10:16;6.87;;;2.00;;
68923;SDS011;55961;52.156;20.942;2023-02-04T04:12:42;6.32;;;1.88;;
68923;SDS011;55961;52.156;20.942;2023-02-04T04:15:08;7.25;;;2.50;;
68923;SDS011;55961;52.156;20.942;2023-02-04T04:17:35;7.03;;;2.80;;
68923;SDS011;55961;52.156;20.942;2023-02-04T04:20:01;7.03;;;2.60;;
68923;SDS011;55961;52.156;20.942;2023-02-04T04:22:27;9.52;;;3.25;;
68923;SDS011;55961;52.156;20.942;2023-02-04T04:24:52;8.75;;;3.38;;
68923;SDS011;55961;52.156;20.942;2023-02-04T04:27:18;10.93;;;4.23;;
68923;SDS011;55961;52.156;20.942;2023-02-04T04:29:44;11.13;;;3.90;;
68923;SDS011;55961;52.156;20.942;2023-02-04T04:32:10;10.30;;;3.53;;
68923;SDS011;55961;52.156;20.942;2023-02-04T04:34:36;8.80;;;2.83;;
68923;SDS011;55961;52.156;20.942;2023-02-04T04:37:02;7.68;;;3.30;;
68923;SDS011;55961;52.156;20.942;2023-02-04T04:39:28;10.82;;;4.07;;
68923;SDS011;55961;52.156;20.942;2023-02-04T04:41:54;9.38;;;2.85;;
68923;SDS011;55961;52.156;20.942;2023-02-04T04:44:20;5.77;;;1.63;;
68923;SDS011;55961;52.156;20.942;2023-02-04T04:46:46;8.18;;;3.85;;
68923;SDS011;55961;52.156;20.942;2023-02-04T04:49:12;9.60;;;3.75;;
68923;SDS011;55961;52.156;20.942;2023-02-04T04:51:38;7.47;;;3.13;;
68923;SDS011;55961;52.156;20.942;2023-02-04T04:54:04;12.07;;;4.70;;
68923;SDS011;55961;52.156;20.942;2023-02-04T04:56:30;11.77;;;5.13;;
68923;SDS011;55961;52.156;20.942;2023-02-04T04:58:56;7.70;;;2.83;;
68923;SDS011;55961;52.156;20.942;2023-02-04T05:01:22;11.35;;;4.45;;
68923;SDS011;55961;52.156;20.942;2023-02-04T05:03:48;12.23;;;4.25;;
68923;SDS011;55961;52.156;20.942;2023-02-04T05:06:14;9.93;;;3.53;;
68923;SDS011;55961;52.156;20.942;2023-02-04T05:08:40;11.50;;;4.60;;
68923;SDS011;55961;52.156;20.942;2023-02-04T05:11:06;10.93;;;4.30;;
68923;SDS011;55961;52.156;20.942;2023-02-04T05:13:32;10.20;;;3.58;;
68923;SDS011;55961;52.156;20.942;2023-02-04T05:15:58;11.52;;;4.35;;
68923;SDS011;55961;52.156;20.942;2023-02-04T05:18:24;10.20;;;4.17;;
68923;SDS011;55961;52.156;20.942;2023-02-04T05:20:50;11.60;;;5.05;;
68923;SDS011;55961;52.156;20.942;2023-02-04T05:23:15;10.03;;;4.20;;
68923;SDS011;55961;52.156;20.942;2023-02-04T05:25:42;9.50;;;3.90;;
68923;SDS011;55961;52.156;20.942;2023-02-04T05:28:08;7.93;;;3.08;;
68923;SDS011;55961;52.156;20.942;2023-02-04T05:30:34;7.85;;;3.05;;
68923;SDS011;55961;52.156;20.942;2023-02-04T05:33:00;10.03;;;4.33;;
68923;SDS011;55961;52.156;20.942;2023-02-04T05:35:26;11.10;;;3.38;;
68923;SDS011;55961;52.156;20.942;2023-02-04T05:37:52;10.03;;;3.23;;
68923;SDS011;55961;52.156;20.942;2023-02-04T05:40:18;8.40;;;3.00;;
68923;SDS011;55961;52.156;20.942;2023-02-04T05:42:43;11.20;;;3.70;;
68923;SDS011;55961;52.156;20.942;2023-02-04T05:45:12;11.40;;;4.05;;
68923;SDS011;55961;52.156;20.942;2023-02-04T05:47:39;7.57;;;2.43;;
68923;SDS011;55961;52.156;20.942;2023-02-04T05:50:07;9.43;;;3.55;;
68923;SDS011;55961;52.156;20.942;2023-02-04T05:52:33;8.27;;;3.15;;
68923;SDS011;55961;52.156;20.942;2023-02-04T05:54:59;7.65;;;2.70;;
68923;SDS011;55961;52.156;20.942;2023-02-04T05:57:25;9.80;;;3.50;;
68923;SDS011;55961;52.156;20.942;2023-02-04T05:59:51;6.70;;;2.25;;
68923;SDS011;55961;52.156;20.942;2023-02-04T06:02:17;7.28;;;2.70;;
68923;SDS011;55961;52.156;20.942;2023-02-04T06:04:44;8.70;;;2.67;;
68923;SDS011;55961;52.156;20.942;2023-02-04T06:07:09;15.40;;;2.95;;
68923;SDS011;55961;52.156;20.942;2023-02-04T06:09:36;8.38;;;2.88;;
68923;SDS011;55961;52.156;20.942;2023-02-04T06:12:01;7.90;;;2.50;;
68923;SDS011;55961;52.156;20.942;2023-02-04T06:14:27;9.57;;;3.17;;
68923;SDS011;55961;52.156;20.942;2023-02-04T06:16:53;8.35;;;3.05;;
68923;SDS011;55961;52.156;20.942;2023-02-04T06:19:19;8.85;;;3.20;;
68923;SDS011;55961;52.156;20.942;2023-02-04T06:21:45;8.17;;;2.83;;
68923;SDS011;55961;52.156;20.942;2023-02-04T06:24:11;10.23;;;3.40;;
68923;SDS011;55961;52.156;20.942;2023-02-04T06:26:37;8.35;;;2.55;;
68923;SDS011;55961;52.156;20.942;2023-02-04T06:29:03;7.73;;;2.73;;
68923;SDS011;55961;52.156;20.942;2023-02-04T06:31:29;8.77;;;3.25;;
68923;SDS011;55961;52.156;20.942;2023-02-04T06:33:55;10.02;;;3.22;;
68923;SDS011;55961;52.156;20.942;2023-02-04T06:36:21;7.40;;;2.80;;
68923;SDS011;55961;52.156;20.942;2023-02-04T06:38:47;9.05;;;4.07;;
68923;SDS011;55961;52.156;20.942;2023-02-04T06:41:12;8.25;;;3.45;;
68923;SDS011;55961;52.156;20.942;2023-02-04T06:43:38;11.00;;;3.23;;
68923;SDS011;55961;52.156;20.942;2023-02-04T06:46:04;10.63;;;3.22;;
68923;SDS011;55961;52.156;20.942;2023-02-04T06:48:33;10.57;;;2.63;;
68923;SDS011;55961;52.156;20.942;2023-02-04T06:50:59;11.40;;;3.00;;
68923;SDS011;55961;52.156;20.942;2023-02-04T06:53:25;8.93;;;3.53;;
68923;SDS011;55961;52.156;20.942;2023-02-04T06:55:51;9.70;;;3.85;;
68923;SDS011;55961;52.156;20.942;2023-02-04T06:58:17;8.97;;;3.13;;
68923;SDS011;55961;52.156;20.942;2023-02-04T07:00:43;9.55;;;3.65;;
68923;SDS011;55961;52.156;20.942;2023-02-04T07:03:09;11.38;;;3.80;;
68923;SDS011;55961;52.156;20.942;2023-02-04T07:05:35;9.13;;;3.33;;
68923;SDS011;55961;52.156;20.942;2023-02-04T07:08:01;9.07;;;3.27;;
68923;SDS011;55961;52.156;20.942;2023-02-04T07:10:27;10.55;;;3.65;;
68923;SDS011;55961;52.156;20.942;2023-02-04T07:12:53;9.70;;;2.58;;
68923;SDS011;55961;52.156;20.942;2023-02-04T07:15:19;8.27;;;2.63;;
68923;SDS011;55961;52.156;20.942;2023-02-04T07:17:45;9.07;;;3.22;;
68923;SDS011;55961;52.156;20.942;2023-02-04T07:20:11;7.70;;;2.63;;
68923;SDS011;55961;52.156;20.942;2023-02-04T07:22:37;8.70;;;2.23;;
68923;SDS011;55961;52.156;20.942;2023-02-04T07:25:04;9.48;;;2.90;;
68923;SDS011;55961;52.156;20.942;2023-02-04T07:27:30;8.50;;;3.13;;
68923;SDS011;55961;52.156;20.942;2023-02-04T07:29:56;9.27;;;2.73;;
68923;SDS011;55961;52.156;20.942;2023-02-04T07:32:22;8.75;;;2.92;;
68923;SDS011;55961;52.156;20.942;2023-02-04T07:34:48;9.30;;;2.97;;
68923;SDS011;55961;52.156;20.942;2023-02-04T07:37:14;10.52;;;3.95;;
68923;SDS011;55961;52.156;20.942;2023-02-04T07:39:40;7.43;;;2.13;;
68923;SDS011;55961;52.156;20.942;2023-02-04T07:42:06;9.23;;;2.85;;
68923;SDS011;55961;52.156;20.942;2023-02-04T07:44:31;8.18;;;2.95;;
68923;SDS011;55961;52.156;20.942;2023-02-04T07:46:57;9.53;;;2.67;;
68923;SDS011;55961;52.156;20.942;2023-02-04T07:49:24;7.55;;;2.40;;
68923;SDS011;55961;52.156;20.942;2023-02-04T07:51:51;10.60;;;2.28;;
68923;SDS011;55961;52.156;20.942;2023-02-04T07:54:16;8.67;;;2.00;;
68923;SDS011;55961;52.156;20.942;2023-02-04T07:56:43;4.70;;;1.70;;
68923;SDS011;55961;52.156;20.942;2023-02-04T07:59:08;7.00;;;2.42;;
68923;SDS011;55961;52.156;20.942;2023-02-04T08:01:34;5.85;;;2.00;;
68923;SDS011;55961;52.156;20.942;2023-02-04T08:04:00;7.37;;;1.70;;
68923;SDS011;55961;52.156;20.942;2023-02-04T08:06:26;4.68;;;1.50;;
68923;SDS011;55961;52.156;20.942;2023-02-04T08:08:52;5.63;;;1.92;;
68923;SDS011;55961;52.156;20.942;2023-02-04T08:11:18;8.70;;;2.60;;
68923;SDS011;55961;52.156;20.942;2023-02-04T08:13:44;6.57;;;1.88;;
68923;SDS011;55961;52.156;20.942;2023-02-04T08:16:10;6.80;;;1.85;;
68923;SDS011;55961;52.156;20.942;2023-02-04T08:18:36;7.83;;;2.30;;
68923;SDS011;55961;52.156;20.942;2023-02-04T08:21:02;6.15;;;2.20;;
68923;SDS011;55961;52.156;20.942;2023-02-04T08:23:29;9.63;;;2.20;;
68923;SDS011;55961;52.156;20.942;2023-02-04T08:25:55;5.13;;;1.58;;
68923;SDS011;55961;52.156;20.942;2023-02-04T08:28:20;5.17;;;1.30;;
68923;SDS011;55961;52.156;20.942;2023-02-04T08:30:46;3.65;;;1.00;;
68923;SDS011;55961;52.156;20.942;2023-02-04T08:33:12;5.15;;;1.50;;
68923;SDS011;55961;52.156;20.942;2023-02-04T08:35:39;4.43;;;1.27;;
68923;SDS011;55961;52.156;20.942;2023-02-04T08:38:04;7.13;;;1.80;;
68923;SDS011;55961;52.156;20.942;2023-02-04T08:40:30;5.50;;;1.42;;
68923;SDS011;55961;52.156;20.942;2023-02-04T08:42:56;5.67;;;1.17;;
68923;SDS011;55961;52.156;20.942;2023-02-04T08:45:22;5.40;;;1.55;;
68923;SDS011;55961;52.156;20.942;2023-02-04T08:47:48;5.95;;;1.55;;
68923;SDS011;55961;52.156;20.942;2023-02-04T08:50:14;4.07;;;1.07;;
68923;SDS011;55961;52.156;20.942;2023-02-04T08:52:40;5.88;;;1.60;;
68923;SDS011;55961;52.156;20.942;2023-02-04T08:55:06;3.83;;;1.00;;
68923;SDS011;55961;52.156;20.942;2023-02-04T08:57:32;7.32;;;1.63;;
68923;SDS011;55961;52.156;20.942;2023-02-04T08:59:59;7.18;;;3.45;;
68923;SDS011;55961;52.156;20.942;2023-02-04T09:02:25;3.00;;;0.73;;
68923;SDS011;55961;52.156;20.942;2023-02-04T09:04:51;2.88;;;0.50;;
68923;SDS011;55961;52.156;20.942;2023-02-04T09:07:17;4.18;;;0.47;;
68923;SDS011;55961;52.156;20.942;2023-02-04T09:09:43;2.80;;;0.63;;
68923;SDS011;55961;52.156;20.942;2023-02-04T09:12:09;3.38;;;1.00;;
68923;SDS011;55961;52.156;20.942;2023-02-04T09:14:37;3.42;;;0.57;;
68923;SDS011;55961;52.156;20.942;2023-02-04T09:17:03;3.00;;;0.57;;
68923;SDS011;55961;52.156;20.942;2023-02-04T09:19:30;4.25;;;0.88;;
68923;SDS011;55961;52.156;20.942;2023-02-04T09:21:56;2.45;;;0.70;;
68923;SDS011;55961;52.156;20.942;2023-02-04T09:24:22;2.53;;;0.63;;
68923;SDS011;55961;52.156;20.942;2023-02-04T09:26:48;3.60;;;0.70;;
68923;SDS011;55961;52.156;20.942;2023-02-04T09:29:15;4.28;;;0.90;;
68923;SDS011;55961;52.156;20.942;2023-02-04T09:31:40;3.60;;;0.70;;
68923;SDS011;55961;52.156;20.942;2023-02-04T09:34:06;4.10;;;0.73;;
68923;SDS011;55961;52.156;20.942;2023-02-04T09:36:32;3.30;;;0.53;;
68923;SDS011;55961;52.156;20.942;2023-02-04T09:39:05;2.75;;;0.50;;
68923;SDS011;55961;52.156;20.942;2023-02-04T09:41:33;3.53;;;0.40;;
68923;SDS011;55961;52.156;20.942;2023-02-04T09:44:00;3.25;;;0.50;;
68923;SDS011;55961;52.156;20.942;2023-02-04T09:46:28;3.47;;;0.77;;
68923;SDS011;55961;52.156;20.942;2023-02-04T09:48:56;4.70;;;1.40;;
68923;SDS011;55961;52.156;20.942;2023-02-04T09:51:27;4.25;;;0.80;;
68923;SDS011;55961;52.156;20.942;2023-02-04T09:53:55;3.28;;;0.70;;
68923;SDS011;55961;52.156;20.942;2023-02-04T09:56:52;5.80;;;1.27;;
68923;SDS011;55961;52.156;20.942;2023-02-04T09:59:18;3.55;;;0.60;;
68923;SDS011;55961;52.156;20.942;2023-02-04T10:01:58;2.93;;;0.80;;
68923;SDS011;55961;52.156;20.942;2023-02-04T10:04:26;5.15;;;1.00;;
68923;SDS011;55961;52.156;20.942;2023-02-04T10:06:52;4.43;;;1.00;;
68923;SDS011;55961;52.156;20.942;2023-02-04T10:09:22;3.05;;;0.68;;
68923;SDS011;55961;52.156;20.942;2023-02-04T10:11:48;3.37;;;0.80;;
68923;SDS011;55961;52.156;20.942;2023-02-04T10:14:18;4.47;;;0.85;;
68923;SDS011;55961;52.156;20.942;2023-02-04T10:16:48;2.25;;;0.52;;
68923;SDS011;55961;52.156;20.942;2023-02-04T10:19:21;3.95;;;0.93;;
68923;SDS011;55961;52.156;20.942;2023-02-04T10:21:47;5.22;;;1.02;;
68923;SDS011;55961;52.156;20.942;2023-02-04T10:24:15;5.33;;;1.10;;
68923;SDS011;55961;52.156;20.942;2023-02-04T10:26:43;5.53;;;1.50;;
68923;SDS011;55961;52.156;20.942;2023-02-04T10:31:41;4.60;;;1.25;;
68923;SDS011;55961;52.156;20.942;2023-02-04T10:34:10;9.93;;;3.00;;
68923;SDS011;55961;52.156;20.942;2023-02-04T10:36:36;8.30;;;2.00;;
68923;SDS011;55961;52.156;20.942;2023-02-04T10:39:03;5.95;;;1.50;;
68923;SDS011;55961;52.156;20.942;2023-02-04T10:41:31;7.90;;;1.83;;
68923;SDS011;55961;52.156;20.942;2023-02-04T10:44:06;4.03;;;1.15;;
68923;SDS011;55961;52.156;20.942;2023-02-04T10:46:34;7.50;;;1.85;;
68923;SDS011;55961;52.156;20.942;2023-02-04T10:49:04;8.07;;;2.20;;
68923;SDS011;55961;52.156;20.942;2023-02-04T10:51:41;6.43;;;2.20;;
68923;SDS011;55961;52.156;20.942;2023-02-04T10:54:09;7.55;;;2.58;;
68923;SDS011;55961;52.156;20.942;2023-02-04T10:56:59;7.28;;;2.50;;
68923;SDS011;55961;52.156;20.942;2023-02-04T10:59:31;6.88;;;2.58;;
68923;SDS011;55961;52.156;20.942;2023-02-04T11:01:58;5.37;;;1.53;;
68923;SDS011;55961;52.156;20.942;2023-02-04T11:04:27;7.35;;;1.70;;
68923;SDS011;55961;52.156;20.942;2023-02-04T11:06:53;9.20;;;2.83;;
68923;SDS011;55961;52.156;20.942;2023-02-04T11:09:19;7.32;;;2.17;;
68923;SDS011;55961;52.156;20.942;2023-02-04T11:11:49;11.07;;;3.78;;
68923;SDS011;55961;52.156;20.942;2023-02-04T11:14:26;8.57;;;3.90;;
68923;SDS011;55961;52.156;20.942;2023-02-04T11:16:54;8.73;;;2.60;;
68923;SDS011;55961;52.156;20.942;2023-02-04T11:19:33;8.40;;;2.55;;
68923;SDS011;55961;52.156;20.942;2023-02-04T11:22:05;8.63;;;4.43;;
68923;SDS011;55961;52.156;20.942;2023-02-04T11:24:43;8.75;;;3.70;;
68923;SDS011;55961;52.156;20.942;2023-02-04T11:27:24;6.73;;;2.43;;
68923;SDS011;55961;52.156;20.942;2023-02-04T11:30:18;5.43;;;2.22;;
68923;SDS011;55961;52.156;20.942;2023-02-04T11:32:59;6.30;;;2.60;;
68923;SDS011;55961;52.156;20.942;2023-02-04T11:35:27;5.03;;;1.60;;
68923;SDS011;55961;52.156;20.942;2023-02-04T11:37:54;8.33;;;3.83;;
68923;SDS011;55961;52.156;20.942;2023-02-04T11:40:25;8.07;;;3.75;;
68923;SDS011;55961;52.156;20.942;2023-02-04T11:42:56;8.32;;;2.78;;
68923;SDS011;55961;52.156;20.942;2023-02-04T11:45:32;8.82;;;2.38;;
68923;SDS011;55961;52.156;20.942;2023-02-04T11:48:00;12.43;;;3.80;;
68923;SDS011;55961;52.156;20.942;2023-02-04T11:50:34;6.00;;;2.53;;
68923;SDS011;55961;52.156;20.942;2023-02-04T11:53:02;8.32;;;2.60;;
68923;SDS011;55961;52.156;20.942;2023-02-04T11:55:29;9.25;;;2.22;;
68923;SDS011;55961;52.156;20.942;2023-02-04T11:57:58;8.25;;;2.90;;
68923;SDS011;55961;52.156;20.942;2023-02-04T12:00:28;6.80;;;1.98;;
68923;SDS011;55961;52.156;20.942;2023-02-04T12:02:57;9.33;;;2.83;;
68923;SDS011;55961;52.156;20.942;2023-02-04T12:05:35;9.93;;;4.00;;
68923;SDS011;55961;52.156;20.942;2023-02-04T12:08:08;11.80;;;4.28;;
68923;SDS011;55961;52.156;20.942;2023-02-04T12:13:47;5.88;;;2.35;;
68923;SDS011;55961;52.156;20.942;2023-02-04T12:16:15;5.67;;;2.03;;
68923;SDS011;55961;52.156;20.942;2023-02-04T12:18:41;8.15;;;2.65;;
68923;SDS011;55961;52.156;20.942;2023-02-04T12:21:07;8.27;;;3.38;;
68923;SDS011;55961;52.156;20.942;2023-02-04T12:23:33;8.27;;;2.80;;
68923;SDS011;55961;52.156;20.942;2023-02-04T12:25:59;7.50;;;3.35;;
68923;SDS011;55961;52.156;20.942;2023-02-04T12:28:25;7.80;;;3.03;;
68923;SDS011;55961;52.156;20.942;2023-02-04T12:30:52;7.80;;;2.50;;
68923;SDS011;55961;52.156;20.942;2023-02-04T12:33:18;10.97;;;3.40;;
68923;SDS011;55961;52.156;20.942;2023-02-04T12:35:45;6.70;;;2.60;;
68923;SDS011;55961;52.156;20.942;2023-02-04T12:38:10;11.07;;;3.25;;
68923;SDS011;55961;52.156;20.942;2023-02-04T12:40:36;7.82;;;2.60;;
68923;SDS011;55961;52.156;20.942;2023-02-04T12:43:02;9.07;;;3.05;;
68923;SDS011;55961;52.156;20.942;2023-02-04T12:45:29;8.20;;;2.77;;
68923;SDS011;55961;52.156;20.942;2023-02-04T12:47:54;8.10;;;3.30;;
68923;SDS011;55961;52.156;20.942;2023-02-04T12:50:21;10.40;;;3.20;;
68923;SDS011;55961;52.156;20.942;2023-02-04T12:52:50;9.57;;;3.17;;
68923;SDS011;55961;52.156;20.942;2023-02-04T12:55:22;10.40;;;3.77;;
68923;SDS011;55961;52.156;20.942;2023-02-04T12:57:50;9.98;;;3.08;;
68923;SDS011;55961;52.156;20.942;2023-02-04T13:00:16;10.57;;;3.53;;
68923;SDS011;55961;52.156;20.942;2023-02-04T13:02:44;8.45;;;3.40;;
68923;SDS011;55961;52.156;20.942;2023-02-04T13:05:10;8.77;;;2.80;;
68923;SDS011;55961;52.156;20.942;2023-02-04T13:07:37;11.30;;;3.00;;
68923;SDS011;55961;52.156;20.942;2023-02-04T13:10:05;7.32;;;3.17;;
68923;SDS011;55961;52.156;20.942;2023-02-04T13:12:32;8.02;;;2.60;;
68923;SDS011;55961;52.156;20.942;2023-02-04T13:14:58;8.15;;;2.40;;
68923;SDS011;55961;52.156;20.942;2023-02-04T13:17:23;8.33;;;3.40;;
68923;SDS011;55961;52.156;20.942;2023-02-04T13:19:49;11.70;;;2.67;;
68923;SDS011;55961;52.156;20.942;2023-02-04T13:22:15;9.75;;;3.17;;
68923;SDS011;55961;52.156;20.942;2023-02-04T13:24:41;10.50;;;3.33;;
68923;SDS011;55961;52.156;20.942;2023-02-04T13:27:07;8.90;;;3.13;;
68923;SDS011;55961;52.156;20.942;2023-02-04T13:29:33;12.07;;;3.78;;
68923;SDS011;55961;52.156;20.942;2023-02-04T13:31:59;11.02;;;3.33;;
68923;SDS011;55961;52.156;20.942;2023-02-04T13:34:25;12.67;;;7.20;;
68923;SDS011;55961;52.156;20.942;2023-02-04T13:36:51;13.20;;;7.47;;
68923;SDS011;55961;52.156;20.942;2023-02-04T13:39:18;9.00;;;2.88;;
68923;SDS011;55961;52.156;20.942;2023-02-04T13:41:43;10.80;;;2.80;;
68923;SDS011;55961;52.156;20.942;2023-02-04T13:44:10;8.27;;;2.88;;
68923;SDS011;55961;52.156;20.942;2023-02-04T13:46:36;7.30;;;1.60;;
68923;SDS011;55961;52.156;20.942;2023-02-04T13:49:02;5.75;;;1.48;;
68923;SDS011;55961;52.156;20.942;2023-02-04T13:51:28;12.30;;;1.97;;
68923;SDS011;55961;52.156;20.942;2023-02-04T13:53:55;5.03;;;1.47;;
68923;SDS011;55961;52.156;20.942;2023-02-04T13:56:22;5.30;;;1.85;;
68923;SDS011;55961;52.156;20.942;2023-02-04T13:58:48;11.20;;;2.88;;
68923;SDS011;55961;52.156;20.942;2023-02-04T14:01:14;7.43;;;2.17;;
68923;SDS011;55961;52.156;20.942;2023-02-04T14:03:40;5.75;;;1.80;;
68923;SDS011;55961;52.156;20.942;2023-02-04T14:06:07;4.82;;;1.10;;
68923;SDS011;55961;52.156;20.942;2023-02-04T14:08:33;5.63;;;1.50;;
68923;SDS011;55961;52.156;20.942;2023-02-04T14:10:59;4.47;;;1.30;;
68923;SDS011;55961;52.156;20.942;2023-02-04T14:13:25;5.05;;;1.05;;
68923;SDS011;55961;52.156;20.942;2023-02-04T14:15:51;6.63;;;1.50;;
68923;SDS011;55961;52.156;20.942;2023-02-04T14:18:18;5.40;;;1.27;;
68923;SDS011;55961;52.156;20.942;2023-02-04T14:20:45;5.85;;;1.30;;
68923;SDS011;55961;52.156;20.942;2023-02-04T14:23:11;5.37;;;1.50;;
68923;SDS011;55961;52.156;20.942;2023-02-04T14:25:37;5.38;;;1.17;;
68923;SDS011;55961;52.156;20.942;2023-02-04T14:28:03;4.70;;;1.42;;
68923;SDS011;55961;52.156;20.942;2023-02-04T14:30:30;5.68;;;1.15;;
68923;SDS011;55961;52.156;20.942;2023-02-04T14:32:56;4.85;;;1.00;;
68923;SDS011;55961;52.156;20.942;2023-02-04T14:35:23;4.50;;;0.80;;
68923;SDS011;55961;52.156;20.942;2023-02-04T14:37:50;6.60;;;1.20;;
68923;SDS011;55961;52.156;20.942;2023-02-04T14:40:16;5.40;;;1.20;;